地図

経路データ

SID SEASON NUMBER BASIN SUBBASIN NAME ISO_TIME NATURE LAT LON WMO_WIND WMO_PRES WMO_AGENCY TRACK_TYPE DIST2LAND LANDFALL IFLAG USA_AGENCY USA_ATCF_ID USA_LAT USA_LON USA_RECORD USA_STATUS USA_WIND USA_PRES USA_SSHS USA_R34_NE USA_R34_SE USA_R34_SW USA_R34_NW USA_R50_NE USA_R50_SE USA_R50_SW USA_R50_NW USA_R64_NE USA_R64_SE USA_R64_SW USA_R64_NW USA_POCI USA_ROCI USA_RMW USA_EYE TOKYO_LAT TOKYO_LON TOKYO_GRADE TOKYO_WIND TOKYO_PRES TOKYO_R50_DIR TOKYO_R50_LONG TOKYO_R50_SHORT TOKYO_R30_DIR TOKYO_R30_LONG TOKYO_R30_SHORT TOKYO_LAND CMA_LAT CMA_LON CMA_CAT CMA_WIND CMA_PRES HKO_LAT HKO_LON HKO_CAT HKO_WIND HKO_PRES NEWDELHI_LAT NEWDELHI_LON NEWDELHI_GRADE NEWDELHI_WIND NEWDELHI_PRES NEWDELHI_CI NEWDELHI_DP NEWDELHI_POCI REUNION_LAT REUNION_LON REUNION_TYPE REUNION_WIND REUNION_PRES REUNION_TNUM REUNION_CI REUNION_RMW REUNION_R34_NE REUNION_R34_SE REUNION_R34_SW REUNION_R34_NW REUNION_R50_NE REUNION_R50_SE REUNION_R50_SW REUNION_R50_NW REUNION_R64_NE REUNION_R64_SE REUNION_R64_SW REUNION_R64_NW BOM_LAT BOM_LON BOM_TYPE BOM_WIND BOM_PRES BOM_TNUM BOM_CI BOM_RMW BOM_R34_NE BOM_R34_SE BOM_R34_SW BOM_R34_NW BOM_R50_NE BOM_R50_SE BOM_R50_SW BOM_R50_NW BOM_R64_NE BOM_R64_SE BOM_R64_SW BOM_R64_NW BOM_ROCI BOM_POCI BOM_EYE BOM_POS_METHOD BOM_PRES_METHOD NADI_LAT NADI_LON NADI_CAT NADI_WIND NADI_PRES WELLINGTON_LAT WELLINGTON_LON WELLINGTON_WIND WELLINGTON_PRES DS824_LAT DS824_LON DS824_STAGE DS824_WIND DS824_PRES TD9636_LAT TD9636_LON TD9636_STAGE TD9636_WIND TD9636_PRES TD9635_LAT TD9635_LON TD9635_WIND TD9635_PRES TD9635_ROCI NEUMANN_LAT NEUMANN_LON NEUMANN_CLASS NEUMANN_WIND NEUMANN_PRES MLC_LAT MLC_LON MLC_CLASS MLC_WIND MLC_PRES USA_GUST BOM_GUST BOM_GUST_PER REUNION_GUST REUNION_GUST_PER USA_SEAHGT USA_SEARAD_NE USA_SEARAD_SE USA_SEARAD_SW USA_SEARAD_NW STORM_SPEED STORM_DIR
1886043S11089 1886 1 SI MM NOT_NAMED 1886-02-12 00:00:00 TS -11.3000 88.5000 main 1573 1573 _________O____ -1 -11.3000 88.5000 TC 5 246
1886043S11089 1886 1 SI MM NOT_NAMED 1886-02-12 03:00:00 TS -11.3925 88.2875 main 1597 1597 _________P____ -1 -11.3925 88.2875 TC 4 243
1886043S11089 1886 1 SI MM NOT_NAMED 1886-02-12 06:00:00 TS -11.5000 88.1000 main 1621 1621 _________O____ -1 -11.5000 88.1000 TC 4 234
1886043S11089 1886 1 SI MM NOT_NAMED 1886-02-12 09:00:00 TS -11.6350 87.9500 main 1644 1644 _________P____ -1 -11.6350 87.9500 TC 4 224
1886043S11089 1886 1 SI MM NOT_NAMED 1886-02-12 12:00:00 TS -11.8000 87.8000 main 1667 1667 _________O____ -1 -11.8000 87.8000 TC 5 225
1886043S11089 1886 1 SI MM NOT_NAMED 1886-02-12 15:00:00 TS -11.9925 87.5851 main 1698 1698 _________P____ -1 -11.9925 87.5851 TC 6 224
1886043S11089 1886 1 SI MM NOT_NAMED 1886-02-12 18:00:00 TS -12.2000 87.4000 main 1730 1730 _________O____ -1 -12.2000 87.4000 TC 5 215
1886043S11089 1886 1 SI MM NOT_NAMED 1886-02-12 21:00:00 TS -12.3925 87.2975 main 1753 1753 _________P____ -1 -12.3925 87.2975 TC 4 193
1886043S11089 1886 1 SI MM NOT_NAMED 1886-02-13 00:00:00 TS -12.6000 87.3000 main 1768 1768 _________O____ -1 -12.6000 87.3000 TC 5 167
1886043S11089 1886 1 SI MM NOT_NAMED 1886-02-13 03:00:00 TS -12.8575 87.4124 main 1783 1775 _________P____ -1 -12.8575 87.4124 TC 6 150
1886043S11089 1886 1 SI MM NOT_NAMED 1886-02-13 06:00:00 TS -13.1000 87.6000 main 1783 1776 _________O____ -1 -13.1000 87.6000 TC 6 138
1886043S11089 1886 1 SI MM NOT_NAMED 1886-02-13 09:00:00 TS -13.2725 87.7925 main 1784 1776 _________P____ -1 -13.2725 87.7925 TC 5 128
1886043S11089 1886 1 SI MM NOT_NAMED 1886-02-13 12:00:00 TS -13.4000 88.0000 main 1777 1769 _________O____ -1 -13.4000 88.0000 TC 5 119
1886043S11089 1886 1 SI MM NOT_NAMED 1886-02-13 15:00:00 TS -13.5000 88.2075 main 1770 1763 _________P____ -1 -13.5000 88.2075 TC 4 117
1886043S11089 1886 1 SI MM NOT_NAMED 1886-02-13 18:00:00 TS -13.6000 88.4000 main 1764 1757 _________O____ -1 -13.6000 88.4000 TC 4 126
1886043S11089 1886 1 SI MM NOT_NAMED 1886-02-13 21:00:00 TS -13.7500 88.5650 main 1758 1758 _________P____ -1 -13.7500 88.5650 TC 4 136
1886043S11089 1886 1 SI MM NOT_NAMED 1886-02-14 00:00:00 TS -13.9000 88.7000 main 1768 1768 _________O____ -1 -13.9000 88.7000 TC 3 139
1886043S11089 1886 1 SI MM NOT_NAMED 1886-02-14 03:00:00 TS -14.0075 88.8000 main 1770 1770 _________P____ -1 -14.0075 88.8000 TC 3 136
1886043S11089 1886 1 SI MM NOT_NAMED 1886-02-14 06:00:00 TS -14.1000 88.9000 main 1771 1765 _________O____ -1 -14.1000 88.9000 TC 3 130
1886043S11089 1886 1 SI MM NOT_NAMED 1886-02-14 09:00:00 TS -14.2075 89.0425 main 1773 1767 _________P____ -1 -14.2075 89.0425 TC 4 124
1886043S11089 1886 1 SI MM NOT_NAMED 1886-02-14 12:00:00 TS -14.3000 89.2000 main 1769 1762 _________O____ -1 -14.3000 89.2000 TC 3 117
1886043S11089 1886 1 SI MM NOT_NAMED 1886-02-14 15:00:00 TS -14.3575 89.3500 main 1764 1758 _________P____ -1 -14.3575 89.3500 TC 3 109
1886043S11089 1886 1 SI MM NOT_NAMED 1886-02-14 18:00:00 TS -14.4000 89.5000 main 1758 1752 _________O____ -1 -14.4000 89.5000 TC 3 106
1886043S11089 1886 1 SI MM NOT_NAMED 1886-02-14 21:00:00 TS -14.4349 89.6201 main 1752 1745 _________P____ -1 -14.4349 89.6201 TC 3 109
1886043S11089 1886 1 SI MM NOT_NAMED 1886-02-15 00:00:00 TS -14.5000 89.8000 main 1748 1738 _________O____ -1 -14.5000 89.8000 TC 5 112
1886043S11089 1886 1 SI WA NOT_NAMED 1886-02-15 03:00:00 TS -14.6276 90.1200 main 1738 1730 _________P____ -1 -14.6276 90.1200 TC 7 114
1886043S11089 1886 1 SI WA NOT_NAMED 1886-02-15 06:00:00 TS -14.8000 90.5000 main 1733 1725 _________O____ -1 -14.8000 90.5000 TC 8 118
1886043S11089 1886 1 SI WA NOT_NAMED 1886-02-15 09:00:00 TS -15.0000 90.8575 main 1729 1728 _________P____ -1 -15.0000 90.8575 TC 8 121
1886043S11089 1886 1 SI WA NOT_NAMED 1886-02-15 12:00:00 TS -15.2000 91.2000 main 1732 1726 _________O____ -1 -15.2000 91.2000 TC 7 119
1886043S11089 1886 1 SI WA NOT_NAMED 1886-02-15 15:00:00 TS -15.3575 91.5151 main 1736 1725 _________P____ -1 -15.3575 91.5151 TC 7 117
1886043S11089 1886 1 SI WA NOT_NAMED 1886-02-15 18:00:00 TS -15.5000 91.8000 main 1726 1719 _________O____ -1 -15.5000 91.8000 TC 6 119
1886043S11089 1886 1 SI WA NOT_NAMED 1886-02-15 21:00:00 TS -15.6476 92.0574 main 1713 1713 _________P____ -1 -15.6476 92.0574 TC 6 122
1886043S11089 1886 1 SI WA NOT_NAMED 1886-02-16 00:00:00 TS -15.8000 92.3000 main 1715 _________O____ -1 -15.8000 92.3000 TC 6 123

IBTrACS Databaseについて

本データベースは、米国NOAAが公開する1842年以降の世界の熱帯低気圧のベストトラックデータアーカイブInternational Best Track Archive for Climate Stewardship (IBTrACS)を、ウェブで閲覧しやすい形式に変換したものです。

最終更新日:2021-12-01